Todd, NC

5:08 PM EDT on May 28, 2015 (GMT -0400)
New River Valley | | Change Station
CLOSE
Current Station
Personal Weather Station
Location: Todd, NC
Elevation: 3107 ft
Nearby Weather Stations

Elev 3107 ft 36.31 °N, 81.61 °W | Updated 3 minutes ago

Overcast
Overcast
67.1 °F
Feels Like 67.1 °F
N
5.4
Wind Variable Wind from South
Gusts 11.4 mph

Today
High -- | Low -- °F
--% Chance of Precip.
Yesterday
High -- | Low -- °F
Precip. -- in
6:11 AM 8:35 PM
Waxing Gibbous, 78% visible
Pressure 30.30 in
Visibility 2.5 miles
Clouds Mostly Cloudy 2700 ft
Overcast 3100 ft
Dew Point 61 °F
Humidity 81%
Rainfall 0.00 in
Snow Depth Not available.
UV 2 out of 12
Pollen 6.50 out of 12
Air Quality Not available.
Flu Activity No Activity
METAR KTNB 282035Z AUTO 12004G17KT 2 1/2SM RA BKN027 OVC031 17/16 A3030 RMK AO2 VIS 1 1/4V4 LTG DSNT E W AND NW P0006 T01720164

More Conditions Fewer Conditions

Pressure 30.30 in
Visibility 2.5 miles
Clouds Mostly Cloudy 2700 ft
Overcast 3100 ft
Dew Point 61 °F
Humidity 81%
Rainfall 0.00 in
Snow Depth Not available.
UV 2 out of 12
Pollen 6.50 out of 12
Air Quality Not available.
Flu Activity No Activity
METAR KTNB 282035Z AUTO 12004G17KT 2 1/2SM RA BKN027 OVC031 17/16 A3030 RMK AO2 VIS 1 1/4V4 LTG DSNT E W AND NW P0006 T01720164

More Conditions Fewer Conditions

10-Day Weather Forecast

Almanac

Astronomy

May. 28, 2015 Rise Set
Actual Time
Civil Twilight
Nautical Twilight
Astronomical Twilight
Moon
Length of Visible Light
Length of Day
Tomorrow will be .
, % of the Moon is Illuminated

Today's Extremes

State Highs State Lows

Community

WunderPhotos

Upload Photos

1,825,067 photos uploaded!

WunderBlogs® & News

Nearby

Air Quality

  Air Quality AQ Index Pollutant
Not available.

Snow Depth

Station Depth Elevation

Earthquake Activity

City Distance Mag. Time & Date
Minimum magnitude displayed is 2.5.

Coastal Water Temperatures

Place Temperature

Stations

Nearby Weather Stations

Station Location Temp. Windchill Dew Point Humidity Wind Precip. Elev Updated Type